Frederiksvaerk, Denmark
Current Conditions -  °F | °C
As of 11:20 AM on Saturday 25 Oct 2014 (Local Time) from EKRK Reporting Station
Broken Clouds Broken Clouds  
Wind Chill: 50°   Ceiling: 700
Heat Index: 50°   Visibility: 3mi
Dew Point: 48°   Wind: 12mph
Humidity: 94%   Direction: 190°S
Pressure: 30"   Gusts: NA
Location:  55.97°N, 12.02°E
Report Text: EKRK 250920Z AUTO 19010KT 5000NDV FEW005/// BKN007///10/09 Q1016
Loading
Personal Weather Stations






























Interactive Weather Map
Tropical Storm Tracking
New forecast layout! Learn more

10-Day Weather Forecast

Advertisements
Track Severe Weather on mobile